Time;durP1;ratioP1;P1;durP2;ratioP2;P2;SDS_P1;SDS_P2;PMS_P1;PMS_P2;Temp;Humidity;BMP_temperature;BMP_pressure;BME280_temperature;BME280_humidity;BME280_pressure;Samples;Min_cycle;Max_cycle;Signal;HPM_P1;HPM_P2
2022/10/10 00:01:11;;;;;;;8.60;4.72;;;;;;;10.30;65.01;101074.06;3577362;40;20055;-63
2022/10/10 00:03:37;;;;;;;6.63;4.50;;;;;;;11.11;65.51;101219.13;3582050;40;20055;-63
2022/10/10 00:06:03;;;;;;;7.38;4.70;;;;;;;11.08;65.24;101219.31;3579043;40;20068;-63
2022/10/10 00:08:29;;;;;;;6.40;4.85;;;;;;;11.01;65.26;101218.81;3578363;40;20148;-63
2022/10/10 00:10:54;;;;;;;7.00;4.82;;;;;;;10.45;65.65;101118.88;3581297;40;20056;-62
2022/10/10 00:13:21;;;;;;;10.07;5.10;;;;;;;10.98;65.62;101215.41;3576905;40;20061;-63
2022/10/10 00:15:46;;;;;;;7.63;4.82;;;;;;;10.93;66.43;101211.16;3582061;40;20048;-63
2022/10/10 00:18:12;;;;;;;7.50;4.90;;;;;;;10.15;66.43;101088.34;3577609;40;20048;-62
2022/10/10 00:20:38;;;;;;;9.15;5.35;;;;;;;10.90;66.23;101214.00;3578583;40;20052;-62
2022/10/10 00:23:03;;;;;;;7.15;4.90;;;;;;;10.80;65.86;101199.34;3574677;40;20288;-62
2022/10/10 00:25:29;;;;;;;6.60;4.90;;;;;;;10.76;66.77;101195.13;3575841;40;20048;-62
2022/10/10 00:27:54;;;;;;;7.15;5.22;;;;;;;10.84;66.09;101210.81;3577526;40;20096;-62
2022/10/10 00:30:20;;;;;;;10.82;5.30;;;;;;;10.18;66.41;101098.91;3579961;40;20087;-62
2022/10/10 00:32:46;;;;;;;9.27;5.55;;;;;;;10.82;66.33;101210.91;3577933;40;20068;-62
2022/10/10 00:35:12;;;;;;;8.30;5.15;;;;;;;10.80;66.13;101210.13;3576792;40;20061;-62
2022/10/10 00:37:37;;;;;;;9.15;5.22;;;;;;;10.77;66.23;101204.91;3579917;40;20473;-62
2022/10/10 00:40:05;;;;;;;19.05;14.02;;;;;;;10.78;66.56;101205.78;3578408;40;20061;-63
2022/10/10 00:42:31;;;;;;;10.98;8.48;;;;;;;10.75;66.13;101197.88;3581796;40;20362;-62
2022/10/10 00:45:37;;;;;;;12.50;7.35;;;;;;;10.74;66.76;101205.09;3580093;40;20080;-62
2022/10/10 00:48:16;;;;;;;11.38;6.93;;;;;;;10.71;66.80;101190.94;3580991;40;20052;-62
2022/10/10 00:50:56;;;;;;;9.85;6.25;;;;;;;10.72;66.69;101196.25;3576484;40;20052;-63
2022/10/10 00:53:34;;;;;;;7.50;4.95;;;;;;;10.65;67.25;101181.41;3575151;40;20068;-63
2022/10/10 00:56:03;;;;;;;7.95;5.30;;;;;;;10.34;66.94;101132.09;3580880;40;20052;-63
2022/10/10 00:58:32;;;;;;;5.85;5.03;;;;;;;10.59;66.92;101173.69;3582261;40;20051;-64
2022/10/10 01:00:58;;;;;;;8.20;5.18;;;;;;;10.68;67.59;101189.28;3578897;40;20299;-64
2022/10/10 01:03:24;;;;;;;8.15;5.20;;;;;;;10.65;67.61;101195.72;3579704;40;20102;-64
2022/10/10 01:05:50;;;;;;;7.30;5.10;;;;;;;10.60;67.72;101178.13;3583897;40;20060;-64
2022/10/10 01:08:19;;;;;;;12.07;5.55;;;;;;;10.57;67.76;101172.91;3576935;40;20185;-63
2022/10/10 01:11:04;;;;;;;6.93;5.60;;;;;;;10.61;67.80;101178.03;3585486;40;20095;-63
2022/10/10 01:14:22;;;;;;;11.50;5.60;;;;;;;10.58;68.19;101177.34;3583533;40;20610;-64
2022/10/10 01:17:22;;;;;;;6.53;5.00;;;;;;;10.57;68.00;101171.09;3581902;40;20052;-63
2022/10/10 01:20:15;;;;;;;5.80;5.07;;;;;;;10.56;67.50;101173.84;3579111;40;20044;-63
2022/10/10 01:22:50;;;;;;;7.63;5.35;;;;;;;10.57;67.65;101178.31;3581728;40;20044;-63
2022/10/10 01:26:28;;;;;;;10.20;5.50;;;;;;;10.57;67.56;101180.97;3584220;40;20056;-63
2022/10/10 01:29:16;;;;;;;8.60;5.40;;;;;;;10.35;68.20;101146.38;3547009;40;20064;-63
2022/10/10 01:31:52;;;;;;;10.02;5.07;;;;;;;10.42;68.36;101156.69;3581826;40;20380;-64
2022/10/10 01:34:39;;;;;;;6.75;5.30;;;;;;;10.55;67.72;101180.19;3576092;40;20366;-63
2022/10/10 01:37:20;;;;;;;8.75;4.65;;;;;;;10.39;68.37;101150.63;3583312;40;20379;-63
2022/10/10 01:40:23;;;;;;;7.53;5.30;;;;;;;10.53;68.33;101163.28;3576264;40;20060;-64
2022/10/10 01:43:05;;;;;;;8.80;4.75;;;;;;;10.49;67.76;101161.72;3583441;40;20063;-63
2022/10/10 01:45:31;;;;;;;8.13;5.28;;;;;;;10.44;68.60;101160.16;3585021;40;20125;-63
2022/10/10 01:48:02;;;;;;;6.85;5.10;;;;;;;10.31;67.91;101137.63;3583726;40;20137;-63
2022/10/10 01:50:34;;;;;;;9.85;5.00;;;;;;;9.81;68.05;101063.34;3585200;40;20072;-63
2022/10/10 01:53:29;;;;;;;7.82;5.55;;;;;;;10.39;68.96;101156.84;3584200;40;20059;-63
2022/10/10 01:56:16;;;;;;;8.05;4.82;;;;;;;9.01;68.42;100930.84;3585444;40;20104;-63
2022/10/10 01:59:09;;;;;;;7.30;5.05;;;;;;;10.28;67.94;101151.22;3590112;39;20394;-63
2022/10/10 02:02:05;;;;;;;7.40;5.03;;;;;;;10.26;69.19;101153.13;3582906;40;20055;-63
2022/10/10 02:04:52;;;;;;;6.95;5.35;;;;;;;10.23;69.15;101151.44;3583014;40;20407;-64
2022/10/10 02:07:31;;;;;;;8.40;5.88;;;;;;;10.21;70.15;101147.97;3580008;40;20370;-64
2022/10/10 02:10:04;;;;;;;8.02;5.55;;;;;;;10.20;70.22;101140.00;3578133;39;20125;-63
2022/10/10 02:12:32;;;;;;;8.10;5.50;;;;;;;10.19;69.57;101138.25;3587708;40;20052;-64
2022/10/10 02:15:10;;;;;;;6.80;5.10;;;;;;;10.20;70.00;101142.69;3582101;39;20063;-63
2022/10/10 02:17:41;;;;;;;9.07;5.53;;;;;;;10.06;69.93;101116.59;3585340;40;20082;-64
2022/10/10 02:20:12;;;;;;;8.57;5.38;;;;;;;10.21;69.89;101141.72;3578866;40;20571;-63
2022/10/10 02:22:44;;;;;;;8.50;5.55;;;;;;;10.21;69.42;101136.34;3581755;40;20056;-63
2022/10/10 02:25:13;;;;;;;7.07;4.97;;;;;;;9.41;69.48;100995.75;3580531;40;20048;-63
2022/10/10 02:27:49;;;;;;;9.88;5.40;;;;;;;10.24;69.48;101128.13;3577978;39;20102;-63
2022/10/10 02:30:17;;;;;;;6.35;5.40;;;;;;;10.19;69.15;101123.00;3578855;40;20058;-63
2022/10/10 02:32:50;;;;;;;10.80;5.63;;;;;;;10.17;69.56;101110.59;3584381;40;20056;-63
2022/10/10 02:35:23;;;;;;;9.50;5.43;;;;;;;10.27;70.19;101129.81;3582695;40;20355;-63
2022/10/10 02:37:53;;;;;;;7.78;5.07;;;;;;;10.20;70.18;101111.31;3582495;40;20059;-64
2022/10/10 02:40:29;;;;;;;7.45;5.30;;;;;;;10.20;69.45;101116.69;3582133;40;20064;-63
2022/10/10 02:43:02;;;;;;;9.45;5.68;;;;;;;10.23;69.54;101112.97;3585055;40;20125;-63
2022/10/10 02:45:31;;;;;;;8.00;5.13;;;;;;;10.18;70.06;101115.91;3576903;40;20060;-63
2022/10/10 02:47:59;;;;;;;10.32;7.00;;;;;;;9.59;70.61;101003.75;3579178;40;20090;-63
2022/10/10 02:50:26;;;;;;;8.48;6.05;;;;;;;10.19;70.23;101109.56;3575981;40;20072;-63
2022/10/10 02:52:51;;;;;;;8.73;5.47;;;;;;;10.20;70.50;101107.75;3578904;40;20107;-63
2022/10/10 02:55:17;;;;;;;8.98;5.50;;;;;;;9.43;70.37;100974.22;3587301;39;20047;-63
2022/10/10 02:57:43;;;;;;;10.02;5.93;;;;;;;10.13;70.23;101101.00;3577159;40;20044;-63
2022/10/10 03:00:09;;;;;;;7.38;5.30;;;;;;;10.18;70.26;101104.28;3581090;40;20364;-63
2022/10/10 03:02:35;;;;;;;7.93;5.53;;;;;;;10.19;70.02;101098.84;3586390;40;20088;-63
2022/10/10 03:05:00;;;;;;;8.63;5.70;;;;;;;9.40;70.09;100967.19;3576671;39;20422;-63
2022/10/10 03:07:26;;;;;;;9.73;5.57;;;;;;;10.23;70.71;101099.53;3574686;40;20072;-63
2022/10/10 03:09:52;;;;;;;6.68;5.47;;;;;;;10.22;70.04;101087.91;3577585;40;20065;-63
2022/10/10 03:12:18;;;;;;;9.55;5.93;;;;;;;10.07;70.58;101069.09;3577421;40;20294;-63
2022/10/10 03:14:44;;;;;;;9.20;5.22;;;;;;;10.20;70.10;101092.50;3579543;40;20069;-62
2022/10/10 03:17:10;;;;;;;7.05;4.65;;;;;;;10.21;70.14;101093.34;3581400;40;20067;-62
2022/10/10 03:19:36;;;;;;;6.43;4.90;;;;;;;9.71;70.35;101008.44;3573582;40;20058;-63
2022/10/10 03:22:02;;;;;;;9.13;5.10;;;;;;;10.20;71.23;101088.94;3576763;40;20049;-62
2022/10/10 03:24:27;;;;;;;6.68;5.25;;;;;;;10.14;71.30;101076.72;3578091;39;20302;-63
2022/10/10 03:26:53;;;;;;;8.98;4.85;;;;;;;10.18;70.80;101080.09;3582587;39;20056;-63
2022/10/10 03:29:19;;;;;;;8.18;5.00;;;;;;;10.19;71.03;101088.09;3582905;39;20349;-63
2022/10/10 03:31:44;;;;;;;7.60;5.10;;;;;;;10.19;71.39;101084.53;3579687;40;20402;-62
2022/10/10 03:34:10;;;;;;;8.68;5.50;;;;;;;10.18;71.18;101086.38;3581429;39;20075;-63
2022/10/10 03:36:36;;;;;;;7.18;5.30;;;;;;;10.12;71.00;101077.78;3578502;40;20062;-62
2022/10/10 03:39:02;;;;;;;10.57;5.40;;;;;;;10.17;71.55;101087.28;3576005;40;20096;-62
2022/10/10 03:41:27;;;;;;;8.95;5.20;;;;;;;10.13;71.61;101079.50;3580281;40;20070;-62
2022/10/10 03:43:53;;;;;;;9.98;5.50;;;;;;;10.16;71.82;101087.41;3582230;40;20059;-62
2022/10/10 03:46:19;;;;;;;6.75;5.07;;;;;;;10.18;71.81;101090.84;3579738;40;20064;-63
2022/10/10 03:48:46;;;;;;;7.70;5.10;;;;;;;9.42;71.35;100959.94;3577828;39;20052;-62
2022/10/10 03:51:12;;;;;;;8.48;5.40;;;;;;;10.20;71.75;101102.38;3575832;40;20057;-62
2022/10/10 03:53:37;;;;;;;7.15;4.82;;;;;;;10.15;71.19;101083.84;3575823;40;20391;-62
2022/10/10 03:56:04;;;;;;;6.93;4.47;;;;;;;9.66;71.70;101005.13;3581206;40;20059;-61
2022/10/10 03:58:30;;;;;;;6.35;4.65;;;;;;;9.51;71.17;100975.53;3579298;40;20274;-62
2022/10/10 04:00:59;;;;;;;7.57;5.07;;;;;;;10.25;71.40;101091.41;3578705;40;20054;-62
2022/10/10 04:03:25;;;;;;;7.60;4.95;;;;;;;9.28;71.82;100924.94;3577719;40;20331;-62
2022/10/10 04:05:51;;;;;;;9.70;5.03;;;;;;;10.26;71.48;101088.63;3580484;40;20090;-62
2022/10/10 04:08:17;;;;;;;7.47;4.65;;;;;;;10.27;71.31;101082.31;3588923;39;20072;-62
2022/10/10 04:10:47;;;;;;;7.78;4.90;;;;;;;9.39;71.17;100938.63;3582396;40;20099;-62
2022/10/10 04:13:12;;;;;;;8.52;4.70;;;;;;;10.25;71.98;101088.72;3584033;40;20044;-62
2022/10/10 04:15:38;;;;;;;8.27;5.28;;;;;;;10.11;72.10;101066.16;3577975;40;20058;-62
2022/10/10 04:18:04;;;;;;;9.20;4.63;;;;;;;10.25;71.26;101086.03;3575815;40;20052;-62
2022/10/10 04:20:29;;;;;;;6.25;5.00;;;;;;;10.20;72.15;101092.50;3577784;40;20142;-62
2022/10/10 04:22:55;;;;;;;6.35;4.68;;;;;;;8.94;71.77;100877.63;3577014;40;20057;-62
2022/10/10 04:25:20;;;;;;;8.73;6.05;;;;;;;9.45;71.68;100970.50;3575371;40;20049;-62
2022/10/10 04:27:46;;;;;;;10.77;6.80;;;;;;;10.13;72.44;101084.88;3581249;40;20056;-62
2022/10/10 04:30:12;;;;;;;8.13;5.60;;;;;;;9.92;72.11;101066.31;3578398;39;20068;-63
2022/10/10 04:32:38;;;;;;;7.53;5.43;;;;;;;10.07;72.76;101085.22;3579618;40;20056;-62
2022/10/10 04:35:05;;;;;;;7.15;5.30;;;;;;;10.06;72.91;101087.03;3578174;40;20060;-62
2022/10/10 04:37:30;;;;;;;10.07;5.30;;;;;;;9.23;72.55;100953.84;3577764;40;20394;-62
2022/10/10 04:39:56;;;;;;;9.45;4.95;;;;;;;10.01;72.15;101083.72;3577364;40;20063;-61
2022/10/10 04:42:22;;;;;;;5.32;4.70;;;;;;;9.93;72.30;101073.44;3575990;40;20064;-61
2022/10/10 04:44:47;;;;;;;6.30;4.90;;;;;;;9.98;72.84;101083.91;3579093;39;20096;-62
2022/10/10 04:47:13;;;;;;;7.22;4.97;;;;;;;9.96;72.50;101075.94;3577205;40;20060;-62
2022/10/10 04:49:40;;;;;;;7.30;4.55;;;;;;;9.93;72.71;101077.94;3578812;40;20057;-61
2022/10/10 04:52:08;;;;;;;7.72;5.25;;;;;;;9.90;72.51;101089.72;3580447;40;20394;-62
2022/10/10 04:54:33;;;;;;;6.03;4.93;;;;;;;9.75;72.47;101069.06;3581368;40;20064;-62
2022/10/10 04:56:59;;;;;;;7.80;5.00;;;;;;;9.80;73.76;101080.44;3579634;39;20065;-62
2022/10/10 04:59:25;;;;;;;8.93;4.95;;;;;;;9.75;74.12;101071.75;3578991;40;20068;-62
2022/10/10 05:01:50;;;;;;;7.22;5.30;;;;;;;9.81;74.37;101074.09;3578514;40;20108;-61
2022/10/10 05:04:16;;;;;;;6.70;5.00;;;;;;;9.80;74.00;101075.06;3580640;40;20076;-62
2022/10/10 05:06:41;;;;;;;10.43;5.32;;;;;;;9.75;74.39;101074.44;3579600;40;20065;-62
2022/10/10 05:09:07;;;;;;;9.00;4.43;;;;;;;9.81;73.76;101083.97;3579091;40;20131;-61
2022/10/10 05:11:33;;;;;;;9.68;5.15;;;;;;;9.80;74.15;101074.16;3580524;40;20067;-61
2022/10/10 05:13:59;;;;;;;7.57;5.05;;;;;;;9.79;73.90;101072.44;3581376;40;20076;-62
2022/10/10 05:16:24;;;;;;;8.23;4.72;;;;;;;9.16;74.00;100960.47;3578329;40;20071;-61
2022/10/10 05:18:50;;;;;;;5.82;4.10;;;;;;;9.78;74.50;101068.91;3581378;40;20480;-62
2022/10/10 05:21:16;;;;;;;7.18;4.55;;;;;;;9.77;73.87;101075.22;3582725;39;20098;-62
2022/10/10 05:23:41;;;;;;;6.80;5.20;;;;;;;9.75;74.01;101063.69;3581161;40;20438;-62
2022/10/10 05:26:07;;;;;;;7.50;4.57;;;;;;;9.01;74.51;100943.41;3581048;40;20059;-61
2022/10/10 05:28:35;;;;;;;10.40;5.60;;;;;;;9.76;74.17;101076.16;3581062;40;20052;-63
2022/10/10 05:31:02;;;;;;;18.58;11.70;;;;;;;9.73;74.86;101070.94;3577897;40;20160;-62
2022/10/10 05:33:28;;;;;;;11.60;7.80;;;;;;;9.77;74.72;101080.59;3580007;40;20157;-63
2022/10/10 05:36:11;;;;;;;7.40;5.00;;;;;;;9.75;74.88;101074.44;3578300;40;20072;-62
2022/10/10 05:38:39;;;;;;;6.40;4.40;;;;;;;9.73;74.31;101068.28;3578207;40;20049;-63
2022/10/10 05:41:06;;;;;;;7.25;4.63;;;;;;;9.06;74.20;100958.28;3580923;40;20060;-62
2022/10/10 05:43:34;;;;;;;6.32;4.85;;;;;;;9.77;75.14;101073.41;3577356;40;20099;-62
2022/10/10 05:46:00;;;;;;;9.32;4.55;;;;;;;9.65;75.21;101057.97;3574331;40;20409;-62
2022/10/10 05:48:26;;;;;;;8.43;4.80;;;;;;;9.74;74.87;101078.06;3581472;40;20131;-62
2022/10/10 05:50:57;;;;;;;7.72;4.88;;;;;;;9.75;74.81;101085.16;3578948;40;20044;-63
2022/10/10 05:53:26;;;;;;;7.25;5.00;;;;;;;9.75;75.38;101080.66;3579366;40;20109;-62
2022/10/10 05:55:52;;;;;;;7.75;4.95;;;;;;;9.76;75.89;101079.69;3579976;40;20088;-62
2022/10/10 05:58:18;;;;;;;10.65;4.85;;;;;;;9.76;75.61;101086.91;3580464;40;20214;-62
2022/10/10 06:00:46;;;;;;;7.05;5.15;;;;;;;9.70;75.43;101071.13;3578814;40;20515;-61
2022/10/10 06:03:15;;;;;;;9.75;5.30;;;;;;;9.80;75.13;101082.22;3577223;40;20060;-61
2022/10/10 06:05:49;;;;;;;8.73;5.43;;;;;;;9.79;75.99;101084.03;3578257;40;20128;-61
2022/10/10 06:08:14;;;;;;;9.75;5.20;;;;;;;9.80;76.17;101080.44;3577456;40;20132;-62
2022/10/10 06:10:44;;;;;;;9.65;5.10;;;;;;;9.77;75.65;101083.28;3577186;40;20060;-61
2022/10/10 06:13:13;;;;;;;10.13;5.25;;;;;;;9.80;76.32;101082.22;3579201;40;20095;-61
2022/10/10 06:15:39;;;;;;;8.48;5.05;;;;;;;9.80;75.51;101085.78;3580226;40;20091;-62
2022/10/10 06:18:05;;;;;;;12.07;5.40;;;;;;;9.82;76.09;101086.56;3580870;40;20068;-62
2022/10/10 06:20:38;;;;;;;7.60;5.40;;;;;;;9.84;75.50;101090.03;3584329;40;20060;-61
2022/10/10 06:23:06;;;;;;;11.35;5.50;;;;;;;9.42;75.93;101018.97;3578103;40;20060;-62
2022/10/10 06:25:34;;;;;;;9.68;5.50;;;;;;;9.85;76.39;101096.28;3578970;40;20087;-61
2022/10/10 06:28:00;;;;;;;9.98;5.32;;;;;;;9.13;76.12;100963.31;3576186;40;20070;-63
2022/10/10 06:30:25;;;;;;;11.98;5.40;;;;;;;9.90;75.93;101097.75;3581073;40;20060;-62
2022/10/10 06:32:52;;;;;;;7.28;5.28;;;;;;;9.91;76.05;101091.44;3578537;40;20072;-63
2022/10/10 06:35:18;;;;;;;6.57;5.50;;;;;;;9.94;76.16;101096.63;3577484;40;20049;-63
2022/10/10 06:37:43;;;;;;;7.72;5.22;;;;;;;9.97;76.33;101096.47;3577733;40;20040;-63
2022/10/10 06:40:09;;;;;;;8.43;5.32;;;;;;;9.30;75.79;100982.91;3575987;40;20093;-63
2022/10/10 06:42:35;;;;;;;8.95;5.80;;;;;;;9.45;75.82;100993.75;3579068;40;20052;-62
2022/10/10 06:45:01;;;;;;;9.95;5.60;;;;;;;9.24;75.92;100966.28;3578634;40;20302;-63
2022/10/10 06:47:27;;;;;;;9.48;5.40;;;;;;;10.03;76.61;101094.41;3578023;40;20063;-63
2022/10/10 06:49:53;;;;;;;10.25;5.05;;;;;;;10.10;76.52;101107.41;3579782;40;20094;-62
2022/10/10 06:52:19;;;;;;;8.77;5.50;;;;;;;8.78;75.98;100877.59;3576019;40;20410;-62
2022/10/10 06:54:44;;;;;;;6.90;5.40;;;;;;;10.16;76.63;101108.88;3584565;39;20651;-62
2022/10/10 06:57:10;;;;;;;10.43;5.82;;;;;;;10.17;76.34;101107.91;3585613;39;20303;-62
2022/10/10 06:59:35;;;;;;;9.25;5.72;;;;;;;10.30;76.50;101108.13;3574084;40;20053;-62
2022/10/10 07:02:01;;;;;;;9.68;6.15;;;;;;;10.34;76.48;101115.06;3576232;40;20167;-62
2022/10/10 07:04:27;;;;;;;9.57;6.05;;;;;;;10.37;75.77;101107.72;3574594;40;20060;-62
2022/10/10 07:06:52;;;;;;;8.95;5.60;;;;;;;10.53;75.62;101115.78;3576481;40;20469;-62
2022/10/10 07:09:19;;;;;;;10.73;5.57;;;;;;;10.65;75.47;101111.50;3576674;40;20412;-62
2022/10/10 07:11:45;;;;;;;9.38;5.85;;;;;;;10.19;75.45;101020.06;3580152;40;20044;-62
2022/10/10 07:14:12;;;;;;;11.07;5.85;;;;;;;10.77;74.82;101110.78;3576021;40;20063;-62
2022/10/10 07:16:37;;;;;;;11.88;5.63;;;;;;;10.92;75.07;101109.91;3577353;40;20059;-62
2022/10/10 07:19:04;;;;;;;13.40;6.32;;;;;;;11.18;75.43;101123.63;3576534;40;20299;-62
2022/10/10 07:21:30;;;;;;;13.23;5.78;;;;;;;11.42;74.08;101131.19;3578198;40;20131;-62
2022/10/10 07:23:56;;;;;;;11.00;5.55;;;;;;;11.62;73.13;101133.53;3577813;40;20101;-62
2022/10/10 07:26:25;;;;;;;15.18;5.40;;;;;;;11.83;73.16;101125.97;3577301;40;20065;-62
2022/10/10 07:28:51;;;;;;;10.93;4.88;;;;;;;12.07;72.64;101124.44;3579966;40;20054;-62
2022/10/10 07:31:17;;;;;;;10.65;5.40;;;;;;;12.06;71.65;101085.00;3575133;40;20057;-62
2022/10/10 07:33:47;;;;;;;11.48;5.30;;;;;;;12.36;71.36;101124.41;3575721;40;20049;-62
2022/10/10 07:36:13;;;;;;;8.10;4.72;;;;;;;11.76;70.93;100984.56;3579202;40;20060;-62
2022/10/10 07:38:39;;;;;;;12.57;5.07;;;;;;;12.70;70.42;101096.09;3575431;40;20353;-62
2022/10/10 07:41:08;;;;;;;14.07;5.68;;;;;;;13.10;69.60;101120.44;3576441;40;20106;-62
2022/10/10 07:43:34;;;;;;;10.25;5.00;;;;;;;12.70;68.74;101017.88;3579725;40;20083;-62
2022/10/10 07:46:00;;;;;;;6.35;4.43;;;;;;;12.87;67.84;101014.03;3576064;40;20055;-63
2022/10/10 07:48:26;;;;;;;13.02;5.10;;;;;;;13.78;67.15;101142.81;3582334;40;20392;-63
2022/10/10 07:50:52;;;;;;;9.40;4.70;;;;;;;13.93;66.88;101144.44;3576938;40;20092;-63
2022/10/10 07:53:18;;;;;;;10.55;4.93;;;;;;;14.11;66.29;101143.13;3577376;40;20090;-63
2022/10/10 07:55:43;;;;;;;9.25;4.95;;;;;;;13.60;66.40;101059.38;3576879;40;20051;-62
2022/10/10 07:58:11;;;;;;;11.50;4.78;;;;;;;14.23;66.09;101154.03;3576178;40;20051;-63
2022/10/10 08:00:42;;;;;;;10.82;5.00;;;;;;;14.28;66.18;101158.13;3582895;40;20056;-63
2022/10/10 08:03:09;;;;;;;9.98;4.68;;;;;;;14.35;65.82;101158.53;3576037;40;20045;-63
2022/10/10 08:05:43;;;;;;;8.90;4.75;;;;;;;14.44;65.22;101168.69;3576524;40;20391;-63
2022/10/10 08:08:10;;;;;;;9.52;5.22;;;;;;;14.55;65.50;101160.69;3573372;40;20083;-63
2022/10/10 08:10:37;;;;;;;10.23;4.70;;;;;;;14.23;65.88;101072.91;3576473;40;20065;-63
2022/10/10 08:13:03;;;;;;;9.50;4.82;;;;;;;14.92;65.15;101157.97;3576967;40;20479;-63
2022/10/10 08:15:30;;;;;;;9.55;4.78;;;;;;;15.17;64.51;101161.56;3576450;40;20410;-63
2022/10/10 08:17:55;;;;;;;10.82;4.63;;;;;;;15.33;63.94;101154.84;3580055;40;20056;-64
2022/10/10 08:20:21;;;;;;;8.10;4.32;;;;;;;15.64;63.25;101162.47;3575247;40;20071;-63
2022/10/10 08:22:46;;;;;;;9.43;4.22;;;;;;;15.86;61.84;101165.25;3575958;40;20048;-63
2022/10/10 08:25:12;;;;;;;7.78;4.55;;;;;;;16.02;60.86;101154.91;3578869;40;20298;-63
2022/10/10 08:27:38;;;;;;;11.35;4.53;;;;;;;16.21;60.69;101159.72;3573447;40;20056;-63
2022/10/10 08:30:04;;;;;;;9.15;3.90;;;;;;;16.32;61.13;101166.13;3575162;40;20099;-63
2022/10/10 08:32:30;;;;;;;8.93;4.38;;;;;;;16.32;60.97;101167.00;3577364;40;20352;-63
2022/10/10 08:34:55;;;;;;;7.88;4.22;;;;;;;16.34;60.86;101170.44;3576900;40;20060;-63
2022/10/10 08:37:21;;;;;;;7.93;4.18;;;;;;;15.62;60.82;101039.75;3573342;40;20075;-63
2022/10/10 08:39:46;;;;;;;8.10;4.10;;;;;;;16.41;61.20;101159.97;3580334;40;20048;-63
2022/10/10 08:42:29;;;;;;;8.43;4.15;;;;;;;16.57;60.98;101163.16;3578612;40;20256;-64
2022/10/10 08:45:03;;;;;;;8.82;4.15;;;;;;;16.75;59.89;101160.81;3577462;40;20375;-63
2022/10/10 08:47:51;;;;;;;7.97;3.85;;;;;;;16.98;60.04;101158.91;3578888;40;20440;-63
2022/10/10 08:50:28;;;;;;;7.05;4.03;;;;;;;17.18;58.39;101158.06;3577754;40;20255;-64
2022/10/10 08:53:07;;;;;;;6.13;3.72;;;;;;;17.39;58.06;101174.44;3581331;40;20053;-63
2022/10/10 08:55:39;;;;;;;10.02;3.90;;;;;;;17.55;57.78;101168.53;3576265;40;20048;-63
2022/10/10 08:58:18;;;;;;;6.40;3.85;;;;;;;17.86;56.31;101166.78;3577330;40;20088;-64
2022/10/10 09:01:00;;;;;;;8.15;3.53;;;;;;;17.40;55.90;101056.56;3580064;40;20051;-62
2022/10/10 09:03:38;;;;;;;7.15;3.50;;;;;;;18.27;54.29;101154.13;3579148;40;20126;-62
2022/10/10 09:06:39;;;;;;;8.23;3.88;;;;;;;17.96;55.01;101065.34;3575693;40;20056;-62
2022/10/10 09:09:29;;;;;;;7.55;3.63;;;;;;;18.82;53.86;101164.63;3577545;40;20060;-62
2022/10/10 09:12:19;;;;;;;8.35;3.67;;;;;;;18.94;52.80;101162.66;3579791;40;20052;-63
2022/10/10 09:15:14;;;;;;;6.65;3.58;;;;;;;18.88;52.73;101174.13;3575728;40;20049;-62
2022/10/10 09:18:08;;;;;;;6.28;3.67;;;;;;;18.85;53.49;101177.13;3576394;40;20056;-62
2022/10/10 09:20:52;;;;;;;10.38;3.95;;;;;;;18.78;53.55;101183.13;3560550;40;20336;-62
2022/10/10 09:23:33;;;;;;;;;;;;;;;18.82;53.56;101174.69;3575649;40;20059;-63
2022/10/10 09:26:04;;;;;;;7.55;3.78;;;;;;;19.06;54.17;101177.88;3575990;40;19971;-62
2022/10/10 09:29:03;;;;;;;10.90;3.80;;;;;;;18.92;52.91;101191.91;3575864;40;20053;-63
2022/10/10 09:31:40;;;;;;;12.30;3.78;;;;;;;18.82;53.83;101191.03;3574245;40;20299;-63
2022/10/10 09:34:08;;;;;;;8.57;3.42;;;;;;;18.84;53.23;101199.88;3575596;40;20118;-63
2022/10/10 09:36:36;;;;;;;12.50;4.22;;;;;;;18.93;53.72;101202.63;3573864;40;20048;-63
2022/10/10 09:39:18;;;;;;;7.35;3.95;;;;;;;18.64;53.56;101136.31;3579831;40;20040;-63
2022/10/10 09:42:10;;;;;;;7.88;3.88;;;;;;;18.77;53.42;101139.66;3574579;40;20414;-63
2022/10/10 09:44:39;;;;;;;12.90;3.95;;;;;;;19.48;53.19;101204.88;3575248;40;20307;-64
2022/10/10 09:47:05;;;;;;;10.32;3.28;;;;;;;19.75;52.78;101206.03;3575365;40;20105;-63
2022/10/10 09:49:33;;;;;;;6.35;3.63;;;;;;;19.82;52.04;101207.16;3575311;40;20371;-63
2022/10/10 09:52:22;;;;;;;6.88;3.65;;;;;;;19.66;51.38;101214.09;3575634;40;20064;-63
2022/10/10 09:54:55;;;;;;;4.35;3.53;;;;;;;19.56;51.66;101212.31;3574631;40;20056;-63
2022/10/10 09:57:27;;;;;;;8.85;3.60;;;;;;;19.37;52.16;101218.63;3577104;40;20076;-63
2022/10/10 09:59:53;;;;;;;5.95;3.45;;;;;;;19.20;52.72;101223.78;3579097;40;20060;-63
2022/10/10 10:02:26;;;;;;;5.80;3.30;;;;;;;19.02;52.39;101209.13;3577515;40;20064;-63
2022/10/10 10:04:54;;;;;;;7.65;3.47;;;;;;;18.83;53.31;101222.69;3573931;40;20368;-63
2022/10/10 10:07:32;;;;;;;8.00;4.00;;;;;;;18.63;54.01;101217.16;3575721;40;20064;-63
2022/10/10 10:10:15;;;;;;;8.55;3.80;;;;;;;18.49;54.63;101217.50;3580160;40;20049;-63
2022/10/10 10:12:44;;;;;;;6.95;3.63;;;;;;;18.46;55.82;101220.53;3577191;40;20380;-63
2022/10/10 10:15:24;;;;;;;7.72;3.58;;;;;;;18.44;55.41;101219.78;3575930;40;20048;-63
2022/10/10 10:18:09;;;;;;;24.73;12.30;;;;;;;18.45;55.84;101221.50;3579131;40;20048;-63
2022/10/10 10:20:40;;;;;;;13.57;7.75;;;;;;;17.94;56.07;101133.47;3577894;40;20406;-63
2022/10/10 10:23:32;;;;;;;7.68;4.22;;;;;;;18.53;55.61;101219.84;3574748;40;20129;-63
2022/10/10 10:26:05;;;;;;;7.70;3.95;;;;;;;18.58;55.68;101224.84;3576519;40;20068;-63
2022/10/10 10:28:40;;;;;;;8.63;4.10;;;;;;;18.65;56.03;101212.44;3577198;40;20075;-63
2022/10/10 10:31:45;;;;;;;10.77;4.05;;;;;;;18.75;56.04;101202.47;3573297;40;20049;-63
2022/10/10 10:34:55;;;;;;;8.95;4.10;;;;;;;19.27;55.16;101223.22;3575558;40;20100;-63
2022/10/10 10:37:35;;;;;;;7.97;3.85;;;;;;;19.60;53.62;101230.13;3577141;40;20056;-63
2022/10/10 10:40:49;;;;;;;10.93;4.15;;;;;;;19.82;52.29;101239.91;3578060;40;20059;-63
2022/10/10 10:43:51;;;;;;;10.73;3.83;;;;;;;20.10;51.35;101236.28;3574667;40;20044;-63
2022/10/10 10:46:30;;;;;;;9.50;3.80;;;;;;;20.10;51.07;101243.59;3575512;40;20110;-63
2022/10/10 10:49:06;;;;;;;8.15;3.95;;;;;;;20.00;51.11;101243.63;3578919;40;20485;-63
2022/10/10 10:52:23;;;;;;;8.43;4.40;;;;;;;19.80;52.58;101250.13;3575635;40;20457;-63
2022/10/10 10:55:26;;;;;;;7.50;3.85;;;;;;;19.86;52.78;101246.81;3578590;40;20117;-63
2022/10/10 10:58:28;;;;;;;8.45;3.83;;;;;;;20.20;52.63;101255.34;3578458;40;20048;-63
2022/10/10 11:01:01;;;;;;;6.95;3.42;;;;;;;20.32;51.39;101250.59;3576173;40;20049;-63
2022/10/10 11:03:45;;;;;;;9.40;3.55;;;;;;;20.42;51.32;101256.88;3576178;40;20049;-63
2022/10/10 11:06:55;;;;;;;11.40;3.97;;;;;;;20.43;51.60;101253.16;3576335;40;20149;-63
2022/10/10 11:09:47;;;;;;;7.28;3.58;;;;;;;20.55;51.13;101271.13;3575722;40;20370;-63
2022/10/10 11:12:35;;;;;;;7.13;3.88;;;;;;;20.56;51.47;101264.66;3576692;40;20347;-63
2022/10/10 11:15:28;;;;;;;8.30;3.67;;;;;;;20.48;50.35;101259.03;3576489;40;20057;-63
2022/10/10 11:18:17;;;;;;;9.20;3.38;;;;;;;20.48;51.32;101267.22;3574602;40;20064;-63
2022/10/10 11:20:54;;;;;;;10.50;4.07;;;;;;;20.38;51.47;101264.50;3581445;40;20128;-63
2022/10/10 11:23:48;;;;;;;10.73;4.05;;;;;;;20.64;50.95;101270.22;3577734;40;20078;-63
2022/10/10 11:26:43;;;;;;;10.73;3.80;;;;;;;21.04;50.74;101281.84;3576615;40;20053;-63
2022/10/10 11:29:28;;;;;;;10.43;4.00;;;;;;;20.90;49.20;101187.56;3574916;40;20096;-63
2022/10/10 11:32:14;;;;;;;5.32;3.80;;;;;;;21.49;48.55;101259.13;3575937;40;20048;-63
2022/10/10 11:35:00;;;;;;;7.15;3.53;;;;;;;21.90;47.70;101273.22;3575511;40;20059;-63
2022/10/10 11:37:34;;;;;;;7.05;3.72;;;;;;;21.51;46.87;101173.16;3581808;40;20044;-63
2022/10/10 11:40:05;;;;;;;9.27;3.80;;;;;;;22.42;46.46;101267.81;3577163;40;20049;-63
2022/10/10 11:42:55;;;;;;;5.18;3.58;;;;;;;22.67;45.94;101261.44;3573180;40;20363;-63
2022/10/10 11:45:33;;;;;;;10.95;3.55;;;;;;;22.61;45.18;101266.72;3579354;40;20060;-63
2022/10/10 11:48:34;;;;;;;8.50;4.00;;;;;;;22.02;45.00;101174.22;3575896;40;20075;-63
2022/10/10 11:51:38;;;;;;;8.07;3.40;;;;;;;22.66;45.59;101267.09;3577337;40;20055;-63